CYYZ METAR and TAF weather

Enter ICAO airport designator

Example: see airport list

Station Type Date Time Source
CYYZ METAR 2016/05/28 11:00 UTC NOAA

CYYZ 281100Z 11002KT 15SM FEW200 21/16 A3005 RMK CC1 CC TR SLP174 DENSITY ALT 1200FT

Station Type Date Time Source
CYYZ Decoded METAR 2016/05/28 11:00 UTC NOAA

Toronto Pearson Int'L. Ont., Canada (CYYZ) 43-40N 079-38W 173M
May 28, 2016 - 07:00 AM EDT / 2016.05.28 1100 UTC
Wind: from the ESE (110 degrees) at 2 MPH (2 KT):0
Visibility: 15 mile(s):0
Sky conditions: mostly clear
Temperature: 69 F (21 C)
Dew Point: 60 F (16 C)
Relative Humidity: 73%
Pressure (altimeter): 30.05 in. Hg (1017 hPa)
ob: CYYZ 281100Z 11002KT 15SM FEW200 21/16 A3005 RMK CC1 CC TR SLP174 DENSITY ALT 1200FT
cycle: 11

Station Type Date Time Source
CYYZ TAF 2016/05/28 12:39 UTC NOAA

TAF CYYZ 281138Z 2812/2918 VRB03KT P6SM BKN220
BECMG 2812/2814 17008KT
FM281800 16012KT P6SM BKN050 PROB40 2818/2901 2SM TSRA BR BKN030CB
FM290100 22008KT P6SM BKN060
FM290500 24005KT P6SM SCT060
BECMG 2912/2914 24012KT
RMK NXT FCST BY 281500Z